Time;durP1;ratioP1;P1;durP2;ratioP2;P2;SDS_P1;SDS_P2;PMS_P1;PMS_P2;Temp;Humidity;BMP_temperature;BMP_pressure;BME280_temperature;BME280_humidity;BME280_pressure;Samples;Min_cycle;Max_cycle;Signal;HPM_P1;HPM_P2
2021/06/19 00:00:51;;;;;;;1.88;1.50;;;27.70;54.40;;;;;;5088981;28;20036;-57
2021/06/19 00:03:17;;;;;;;2.00;1.83;;;27.70;54.40;;;;;;5087139;28;20352;-60
2021/06/19 00:05:42;;;;;;;1.70;1.20;;;27.70;54.50;;;;;;5091277;28;20024;-56
2021/06/19 00:08:09;;;;;;;1.50;1.20;;;27.70;54.50;;;;;;5078660;28;20028;-58
2021/06/19 00:10:35;;;;;;;1.65;1.55;;;27.70;54.50;;;;;;5080535;28;20035;-56
2021/06/19 00:13:00;;;;;;;2.55;1.38;;;27.70;54.50;;;;;;5080348;28;20081;-60
2021/06/19 00:15:27;;;;;;;1.80;1.10;;;27.70;54.50;;;;;;5080482;28;20095;-55
2021/06/19 00:17:54;;;;;;;1.75;1.40;;;27.70;54.50;;;;;;5078840;28;20153;-58
2021/06/19 00:20:22;;;;;;;1.50;1.13;;;27.70;54.50;;;;;;5076316;28;20063;-59
2021/06/19 00:22:48;;;;;;;1.63;1.45;;;27.60;54.50;;;;;;5073404;28;20042;-56
2021/06/19 00:25:15;;;;;;;1.35;1.20;;;27.60;54.50;;;;;;5082291;28;20047;-58
2021/06/19 00:27:42;;;;;;;2.15;1.50;;;27.60;54.50;;;;;;5088628;28;20085;-57
2021/06/19 00:30:10;;;;;;;2.10;1.42;;;27.60;54.50;;;;;;5081184;28;20043;-56
2021/06/19 00:32:36;;;;;;;2.00;1.60;;;27.60;54.50;;;;;;5074539;28;20039;-55
2021/06/19 00:35:06;;;;;;;2.20;1.40;;;27.60;54.60;;;;;;5083997;28;20040;-58
2021/06/19 00:37:33;;;;;;;1.67;1.52;;;27.60;54.60;;;;;;5084761;28;20032;-55
2021/06/19 00:40:00;;;;;;;1.85;1.50;;;27.60;54.60;;;;;;5082858;28;20036;-55
2021/06/19 00:42:26;;;;;;;1.77;1.50;;;27.60;54.70;;;;;;5076830;28;20029;-57
2021/06/19 00:44:56;;;;;;;1.60;1.48;;;27.60;54.70;;;;;;5087981;28;20044;-56
2021/06/19 00:47:22;;;;;;;1.63;1.20;;;27.60;54.70;;;;;;5092360;28;20048;-56
2021/06/19 00:49:48;;;;;;;2.08;1.45;;;27.60;54.80;;;;;;5089396;28;20019;-57
2021/06/19 00:52:13;;;;;;;2.25;1.50;;;27.50;54.70;;;;;;5089591;28;20024;-55
2021/06/19 00:54:39;;;;;;;2.03;1.77;;;27.50;54.70;;;;;;5090370;28;20028;-56
2021/06/19 00:57:08;;;;;;;1.92;1.20;;;27.50;54.70;;;;;;5086893;28;20048;-57
2021/06/19 00:59:35;;;;;;;2.10;1.52;;;27.60;54.80;;;;;;5084136;28;20137;-58
2021/06/19 01:02:02;;;;;;;1.75;1.50;;;27.60;54.80;;;;;;5093584;28;20035;-53
2021/06/19 01:04:27;;;;;;;1.38;1.27;;;27.50;54.70;;;;;;5088595;28;20705;-57
2021/06/19 01:06:53;;;;;;;2.10;1.48;;;27.50;54.70;;;;;;5092692;28;20032;-55
2021/06/19 01:09:19;;;;;;;1.85;1.30;;;27.50;54.80;;;;;;5084947;28;20477;-54
2021/06/19 01:11:45;;;;;;;1.60;1.38;;;27.50;54.70;;;;;;5086849;28;20427;-56
2021/06/19 01:14:11;;;;;;;1.88;1.42;;;27.50;54.70;;;;;;5089042;28;20020;-53
2021/06/19 01:16:37;;;;;;;1.50;1.30;;;27.50;54.80;;;;;;5083772;28;20035;-57
2021/06/19 01:19:03;;;;;;;2.47;1.33;;;27.50;54.80;;;;;;5085867;28;20032;-56
2021/06/19 01:21:30;;;;;;;1.50;1.40;;;27.50;54.80;;;;;;5093370;28;20040;-56
2021/06/19 01:23:57;;;;;;;3.05;1.40;;;27.50;54.80;;;;;;5076506;28;20041;-56
2021/06/19 01:26:25;;;;;;;2.33;1.40;;;27.50;54.80;;;;;;5089930;28;20459;-59
2021/06/19 01:28:52;;;;;;;1.90;1.38;;;27.50;54.80;;;;;;5090161;28;20035;-58
2021/06/19 01:31:19;;;;;;;1.83;1.30;;;27.50;54.80;;;;;;5079995;28;20052;-59
2021/06/19 01:33:48;;;;;;;1.52;1.30;;;27.50;54.80;;;;;;5084532;28;20028;-56
2021/06/19 01:36:15;;;;;;;1.58;1.20;;;27.50;54.70;;;;;;5083602;28;20028;-51
2021/06/19 01:38:43;;;;;;;2.53;1.50;;;27.40;54.60;;;;;;5088263;28;20142;-54
2021/06/19 01:41:20;;;;;;;1.83;1.00;;;27.40;54.60;;;;;;5083584;28;20059;-54
2021/06/19 01:43:49;;;;;;;1.30;0.90;;;27.50;54.60;;;;;;5078324;28;20096;-53
2021/06/19 01:46:16;;;;;;;1.58;1.20;;;27.50;54.50;;;;;;5090734;28;20036;-58
2021/06/19 01:48:42;;;;;;;2.83;1.08;;;27.40;54.30;;;;;;5085221;28;20056;-56
2021/06/19 01:51:11;;;;;;;1.95;0.80;;;27.40;54.20;;;;;;5092778;28;20572;-58
2021/06/19 01:53:38;;;;;;;0.98;0.88;;;27.40;54.10;;;;;;5086461;28;20031;-55
2021/06/19 01:56:05;;;;;;;1.40;0.85;;;27.40;54.00;;;;;;5091109;28;20111;-56
2021/06/19 01:58:31;;;;;;;1.38;1.00;;;27.40;54.00;;;;;;5087792;28;20100;-58
2021/06/19 02:00:57;;;;;;;0.95;0.82;;;27.40;53.90;;;;;;5083008;28;20017;-54
2021/06/19 02:03:23;;;;;;;1.10;0.73;;;27.40;53.80;;;;;;5080622;28;20060;-55
2021/06/19 02:05:49;;;;;;;1.30;0.65;;;27.40;53.70;;;;;;5087828;28;20067;-54
2021/06/19 02:08:15;;;;;;;0.93;0.75;;;27.40;53.70;;;;;;5085083;28;20104;-55
2021/06/19 02:10:42;;;;;;;1.17;0.70;;;27.40;53.60;;;;;;5082544;28;20028;-53
2021/06/19 02:13:09;;;;;;;1.98;0.60;;;27.40;53.50;;;;;;5084730;28;20031;-57
2021/06/19 02:15:37;;;;;;;0.60;0.60;;;27.40;53.60;;;;;;5090863;28;20059;-55
2021/06/19 02:18:03;;;;;;;0.63;0.60;;;27.40;53.40;;;;;;5088309;28;20036;-54
2021/06/19 02:20:29;;;;;;;0.82;0.50;;;27.40;53.40;;;;;;5089593;28;20452;-54
2021/06/19 02:22:56;;;;;;;1.55;0.57;;;27.40;53.40;;;;;;5082479;28;20043;-58
2021/06/19 02:25:25;;;;;;;1.38;0.50;;;27.40;53.30;;;;;;5082569;28;20106;-55
2021/06/19 02:27:55;;;;;;;0.70;0.65;;;27.40;53.30;;;;;;5080201;28;20043;-56
2021/06/19 02:30:23;;;;;;;1.27;0.65;;;27.40;53.30;;;;;;5076204;28;20039;-58
2021/06/19 02:32:50;;;;;;;0.70;0.60;;;27.40;53.30;;;;;;5086761;28;20032;-58
2021/06/19 02:35:17;;;;;;;0.60;0.60;;;27.40;53.30;;;;;;5087543;28;20028;-56
2021/06/19 02:37:43;;;;;;;0.73;0.47;;;27.30;53.20;;;;;;5087775;28;20173;-55
2021/06/19 02:40:10;;;;;;;2.00;0.68;;;27.40;53.30;;;;;;5077724;28;20099;-55
2021/06/19 02:42:36;;;;;;;0.90;0.70;;;27.30;53.20;;;;;;5076417;28;20373;-55
2021/06/19 02:45:10;;;;;;;0.98;0.50;;;27.30;53.20;;;;;;5087235;28;20053;-54
2021/06/19 02:47:37;;;;;;;1.38;0.60;;;27.30;53.20;;;;;;5076957;28;20356;-58
2021/06/19 02:50:04;;;;;;;0.80;0.60;;;27.30;53.30;;;;;;5090396;28;20032;-53
2021/06/19 02:52:30;;;;;;;0.60;0.60;;;27.30;53.20;;;;;;5088421;28;20020;-55
2021/06/19 02:54:56;;;;;;;1.95;0.60;;;27.30;53.20;;;;;;5090549;28;20039;-56
2021/06/19 02:57:21;;;;;;;0.70;0.70;;;27.30;53.20;;;;;;5086209;28;20450;-58
2021/06/19 02:59:47;;;;;;;0.80;0.80;;;27.30;53.20;;;;;;5084160;28;20048;-54
2021/06/19 03:02:13;;;;;;;0.60;0.60;;;27.30;53.30;;;;;;5087000;28;20435;-57
2021/06/19 03:04:39;;;;;;;0.60;0.50;;;27.30;53.30;;;;;;5081906;28;20028;-59
2021/06/19 03:07:04;;;;;;;0.40;0.40;;;27.30;53.20;;;;;;5083321;28;20415;-57
2021/06/19 03:09:30;;;;;;;0.70;0.50;;;27.30;53.30;;;;;;5086873;28;20450;-58
2021/06/19 03:11:56;;;;;;;0.85;0.70;;;27.30;53.30;;;;;;5076781;28;20035;-58
2021/06/19 03:14:22;;;;;;;0.40;0.40;;;27.30;53.30;;;;;;5080573;28;20046;-54
2021/06/19 03:16:48;;;;;;;1.17;0.70;;;27.30;53.30;;;;;;5080571;28;20045;-55
2021/06/19 03:19:14;;;;;;;0.68;0.60;;;27.30;53.30;;;;;;5081194;28;20073;-56
2021/06/19 03:21:42;;;;;;;0.60;0.60;;;27.30;53.30;;;;;;5076082;28;20081;-58
2021/06/19 03:24:09;;;;;;;0.80;0.63;;;27.30;53.30;;;;;;5079516;28;20054;-57
2021/06/19 03:26:35;;;;;;;0.50;0.50;;;27.30;53.40;;;;;;5081714;28;20067;-57
2021/06/19 03:29:01;;;;;;;0.52;0.52;;;27.30;53.40;;;;;;5080064;28;20321;-59
2021/06/19 03:31:28;;;;;;;0.82;0.77;;;27.30;53.40;;;;;;5085229;28;20028;-57
2021/06/19 03:33:54;;;;;;;0.85;0.70;;;27.30;53.50;;;;;;5085854;28;20351;-55
2021/06/19 03:36:20;;;;;;;0.93;0.80;;;27.30;53.40;;;;;;5090196;28;20024;-58
2021/06/19 03:38:45;;;;;;;0.43;0.43;;;27.20;53.40;;;;;;5083178;28;20047;-53
2021/06/19 03:41:11;;;;;;;0.63;0.60;;;27.20;53.40;;;;;;5090099;28;20092;-56
2021/06/19 03:43:37;;;;;;;0.77;0.60;;;27.20;53.40;;;;;;5087159;28;20035;-56
2021/06/19 03:46:03;;;;;;;0.57;0.50;;;27.20;53.50;;;;;;5089936;28;20078;-56
2021/06/19 03:48:28;;;;;;;1.13;0.63;;;27.20;53.50;;;;;;5081514;28;20091;-58
2021/06/19 03:50:54;;;;;;;1.08;0.70;;;27.20;53.50;;;;;;5074778;28;20029;-50
2021/06/19 03:53:20;;;;;;;0.82;0.75;;;27.20;53.50;;;;;;5080129;28;20196;-55
2021/06/19 03:55:46;;;;;;;0.55;0.55;;;27.20;53.50;;;;;;5086171;28;20397;-57
2021/06/19 03:58:12;;;;;;;1.05;0.70;;;27.20;53.50;;;;;;5075708;28;20037;-55
2021/06/19 04:00:38;;;;;;;1.40;0.80;;;27.20;53.50;;;;;;5076694;28;20012;-57
2021/06/19 04:03:04;;;;;;;0.73;0.70;;;27.20;53.50;;;;;;5087500;28;20024;-56
2021/06/19 04:05:30;;;;;;;0.70;0.68;;;27.20;53.50;;;;;;5082920;28;20059;-56
2021/06/19 04:07:56;;;;;;;0.70;0.60;;;27.20;53.50;;;;;;5088322;28;20056;-57
2021/06/19 04:10:22;;;;;;;0.75;0.70;;;27.20;53.50;;;;;;5074502;28;20039;-59
2021/06/19 04:12:48;;;;;;;1.00;0.88;;;27.20;53.50;;;;;;5083010;28;20633;-57
2021/06/19 04:15:15;;;;;;;1.20;0.88;;;27.20;53.50;;;;;;5081633;28;20048;-54
2021/06/19 04:17:42;;;;;;;0.82;0.80;;;27.20;53.40;;;;;;5094248;28;20053;-56
2021/06/19 04:20:10;;;;;;;1.17;0.80;;;27.20;53.40;;;;;;5091994;28;20055;-52
2021/06/19 04:22:36;;;;;;;1.80;0.80;;;27.20;53.40;;;;;;5088436;28;20075;-54
2021/06/19 04:25:04;;;;;;;1.00;0.95;;;27.20;53.40;;;;;;5090929;28;20032;-57
2021/06/19 04:27:36;;;;;;;0.80;0.70;;;27.20;53.40;;;;;;5082235;28;20107;-57
2021/06/19 04:30:02;;;;;;;0.88;0.65;;;27.20;53.40;;;;;;5080675;28;20039;-57
2021/06/19 04:32:28;;;;;;;1.00;0.90;;;27.20;53.30;;;;;;5086863;28;20028;-54
2021/06/19 04:34:54;;;;;;;0.90;0.85;;;27.20;53.30;;;;;;5082910;28;20029;-55
2021/06/19 04:37:19;;;;;;;1.10;1.00;;;27.20;53.30;;;;;;5082948;28;20044;-58
2021/06/19 04:39:54;;;;;;;1.20;0.80;;;27.20;53.30;;;;;;5086046;28;20016;-58
2021/06/19 04:42:19;;;;;;;0.75;0.70;;;27.20;53.30;;;;;;5093770;28;20039;-58
2021/06/19 04:47:22;;;;;;;1.13;0.68;;;27.20;53.30;;;;;;5080354;28;20028;-60
2021/06/19 04:49:48;;;;;;;1.33;0.80;;;27.20;53.30;;;;;;5077192;28;20056;-57
2021/06/19 04:52:14;;;;;;;0.70;0.70;;;27.20;53.90;;;;;;5088483;28;20068;-56
2021/06/19 04:54:40;;;;;;;1.00;0.80;;;27.20;53.40;;;;;;5083774;28;20034;-55
2021/06/19 04:57:06;;;;;;;0.80;0.65;;;27.20;53.40;;;;;;5085431;28;20463;-53
2021/06/19 04:59:33;;;;;;;0.77;0.77;;;27.20;53.40;;;;;;5089311;28;20047;-55
2021/06/19 05:01:59;;;;;;;0.50;0.50;;;27.20;53.40;;;;;;5090880;28;20040;-54
2021/06/19 05:04:25;;;;;;;0.80;0.80;;;27.20;53.40;;;;;;5088885;28;20047;-55
2021/06/19 05:06:51;;;;;;;0.60;0.60;;;27.20;53.40;;;;;;5079626;28;20459;-55
2021/06/19 05:09:16;;;;;;;0.70;0.70;;;27.20;53.40;;;;;;5085886;28;20028;-54
2021/06/19 05:11:42;;;;;;;0.75;0.60;;;27.20;53.40;;;;;;5087842;28;20020;-58
2021/06/19 05:14:08;;;;;;;1.00;0.63;;;27.20;53.40;;;;;;5080044;28;20103;-59
2021/06/19 05:16:34;;;;;;;0.50;0.50;;;27.20;53.50;;;;;;5082872;28;20481;-53
2021/06/19 05:18:59;;;;;;;1.77;0.70;;;27.20;53.50;;;;;;5084251;28;20367;-54
2021/06/19 05:21:25;;;;;;;0.50;0.50;;;27.10;53.40;;;;;;5084406;28;20067;-50
2021/06/19 05:23:51;;;;;;;1.23;0.63;;;27.20;53.50;;;;;;5092911;28;20024;-56
2021/06/19 05:26:17;;;;;;;0.70;0.70;;;27.20;53.50;;;;;;5081148;28;20028;-54
2021/06/19 05:28:43;;;;;;;1.50;0.75;;;27.20;53.50;;;;;;5083721;28;20344;-53
2021/06/19 05:31:08;;;;;;;0.75;0.73;;;27.20;53.50;;;;;;5088559;28;20320;-55
2021/06/19 05:33:34;;;;;;;0.77;0.70;;;27.20;53.50;;;;;;5084671;28;20020;-56
2021/06/19 05:36:00;;;;;;;0.95;0.60;;;27.20;53.50;;;;;;5091142;28;20036;-54
2021/06/19 05:38:26;;;;;;;0.70;0.65;;;27.20;53.50;;;;;;5095368;28;20040;-56
2021/06/19 05:40:52;;;;;;;0.85;0.70;;;27.20;53.50;;;;;;5094958;28;20055;-58
2021/06/19 05:43:18;;;;;;;0.60;0.60;;;27.20;53.50;;;;;;5095115;28;20032;-58
2021/06/19 05:45:43;;;;;;;0.88;0.60;;;27.10;53.50;;;;;;5090481;28;20028;-54
2021/06/19 05:48:09;;;;;;;0.80;0.80;;;27.10;53.40;;;;;;5085251;28;20028;-55
2021/06/19 05:50:35;;;;;;;1.75;0.60;;;27.10;53.40;;;;;;5085819;28;20355;-58
2021/06/19 05:53:02;;;;;;;0.70;0.70;;;27.10;53.30;;;;;;5083167;28;20027;-57
2021/06/19 05:55:28;;;;;;;0.98;0.70;;;27.10;53.30;;;;;;5092484;28;20035;-57
2021/06/19 05:57:54;;;;;;;1.08;0.70;;;27.10;53.20;;;;;;5095060;28;20040;-56
2021/06/19 06:00:20;;;;;;;0.73;0.70;;;27.10;53.20;;;;;;5089375;28;20094;-55
2021/06/19 06:02:46;;;;;;;1.35;0.80;;;27.10;53.20;;;;;;5095617;28;20039;-57
2021/06/19 06:05:13;;;;;;;1.60;0.70;;;27.10;53.10;;;;;;5093918;28;20080;-53
2021/06/19 06:07:39;;;;;;;0.82;0.82;;;27.10;53.10;;;;;;5095975;28;20039;-55
2021/06/19 06:10:05;;;;;;;0.90;0.80;;;27.10;53.10;;;;;;5090194;28;20050;-56
2021/06/19 06:12:32;;;;;;;0.75;0.75;;;27.10;53.00;;;;;;5079868;28;20032;-58
2021/06/19 06:14:58;;;;;;;0.80;0.80;;;27.10;53.00;;;;;;5090323;28;20044;-56
2021/06/19 06:17:25;;;;;;;1.25;1.00;;;27.10;53.00;;;;;;5093826;28;20113;-57
2021/06/19 06:19:51;;;;;;;0.95;0.80;;;27.10;52.90;;;;;;5093629;28;20433;-59
2021/06/19 06:22:17;;;;;;;1.20;0.90;;;27.10;53.60;;;;;;5094251;28;20028;-56
2021/06/19 06:24:43;;;;;;;1.73;1.35;;;27.10;52.90;;;;;;5091904;28;20364;-53
2021/06/19 06:27:08;;;;;;;1.75;1.45;;;27.10;52.90;;;;;;5094691;28;20028;-57
2021/06/19 06:29:34;;;;;;;1.98;1.35;;;27.10;52.90;;;;;;5093052;28;20111;-55
2021/06/19 06:32:00;;;;;;;2.00;1.40;;;27.10;52.90;;;;;;5095488;28;20030;-56
2021/06/19 06:34:26;;;;;;;2.28;1.73;;;27.20;52.90;;;;;;5092684;28;20031;-55
2021/06/19 06:36:53;;;;;;;3.35;1.75;;;27.10;52.80;;;;;;5080531;28;20024;-61
2021/06/19 06:39:19;;;;;;;1.48;1.38;;;27.10;52.80;;;;;;5092119;28;20024;-59
2021/06/19 06:41:46;;;;;;;2.22;1.98;;;27.10;52.80;;;;;;5077328;28;20028;-59
2021/06/19 06:44:12;;;;;;;3.13;2.05;;;27.20;52.90;;;;;;5094113;28;20046;-59
2021/06/19 06:46:37;;;;;;;3.63;2.40;;;27.20;52.90;;;;;;5078080;28;20115;-54
2021/06/19 06:49:04;;;;;;;3.33;2.58;;;27.20;52.80;;;;;;5081107;28;20036;-58
2021/06/19 06:51:33;;;;;;;3.65;2.45;;;27.20;52.80;;;;;;5084632;28;20028;-59
2021/06/19 06:53:58;;;;;;;3.85;3.00;;;27.20;52.60;;;;;;5084329;28;20048;-55
2021/06/19 06:56:24;;;;;;;4.80;3.17;;;27.20;52.50;;;;;;5085170;28;20028;-58
2021/06/19 06:58:50;;;;;;;3.45;2.53;;;27.20;52.40;;;;;;5093716;28;20122;-58
2021/06/19 07:01:16;;;;;;;3.72;2.70;;;27.30;52.30;;;;;;5090980;28;20031;-54
2021/06/19 07:03:42;;;;;;;2.95;2.70;;;27.30;52.80;;;;;;5092346;28;20372;-58
2021/06/19 07:06:08;;;;;;;4.68;3.40;;;27.30;52.10;;;;;;5094340;28;20043;-57
2021/06/19 07:08:34;;;;;;;3.50;3.20;;;27.30;51.90;;;;;;5093657;28;20032;-55
2021/06/19 07:11:00;;;;;;;3.35;3.03;;;27.30;51.80;;;;;;5094475;28;20114;-56
2021/06/19 07:13:26;;;;;;;3.20;2.90;;;27.30;51.70;;;;;;5090946;28;20055;-54
2021/06/19 07:15:52;;;;;;;4.03;3.25;;;27.30;51.60;;;;;;5086496;28;20145;-57
2021/06/19 07:18:18;;;;;;;4.38;3.22;;;27.30;51.50;;;;;;5093112;28;20032;-57
2021/06/19 07:20:44;;;;;;;3.67;3.30;;;27.40;51.50;;;;;;5091050;28;20105;-55
2021/06/19 07:23:10;;;;;;;4.05;3.35;;;27.40;51.40;;;;;;5081483;28;20032;-55
2021/06/19 07:25:36;;;;;;;4.05;3.63;;;27.40;51.30;;;;;;5093749;28;20016;-56
2021/06/19 07:28:02;;;;;;;4.05;3.30;;;27.40;51.20;;;;;;5093982;28;20036;-59
2021/06/19 07:30:28;;;;;;;4.75;3.55;;;27.50;51.10;;;;;;5093689;28;20413;-61
2021/06/19 07:32:55;;;;;;;3.38;3.08;;;27.50;51.00;;;;;;5093518;28;20028;-59
2021/06/19 07:35:22;;;;;;;4.07;3.28;;;27.40;50.90;;;;;;5093190;28;20043;-58
2021/06/19 07:37:47;;;;;;;4.00;3.30;;;27.50;50.80;;;;;;5093151;28;20082;-57
2021/06/19 07:40:14;;;;;;;4.50;3.30;;;27.50;50.70;;;;;;5093910;28;20056;-57
2021/06/19 07:42:40;;;;;;;5.88;3.28;;;27.50;50.70;;;;;;5077672;28;20048;-61
2021/06/19 07:45:08;;;;;;;3.60;3.17;;;27.50;50.60;;;;;;5085041;28;20026;-58
2021/06/19 07:47:35;;;;;;;3.42;3.00;;;27.50;50.40;;;;;;5094152;28;20111;-58
2021/06/19 07:50:02;;;;;;;3.20;2.90;;;27.50;50.30;;;;;;5085474;28;20028;-57
2021/06/19 07:52:27;;;;;;;3.38;3.08;;;27.50;50.10;;;;;;5087289;28;20024;-54
2021/06/19 07:54:54;;;;;;;4.63;3.58;;;27.50;50.10;;;;;;5097543;28;20042;-51
2021/06/19 07:57:19;;;;;;;3.42;2.65;;;27.50;50.10;;;;;;5098149;28;20036;-51
2021/06/19 07:59:45;;;;;;;4.47;2.95;;;27.50;49.90;;;;;;5096166;28;20059;-57
2021/06/19 08:02:11;;;;;;;3.63;2.75;;;27.60;49.90;;;;;;5091899;28;20121;-53
2021/06/19 08:04:37;;;;;;;3.03;2.70;;;27.60;49.80;;;;;;5088716;28;20031;-54
2021/06/19 08:07:04;;;;;;;2.95;2.63;;;27.60;49.70;;;;;;5097196;28;20032;-55
2021/06/19 08:09:30;;;;;;;3.00;2.70;;;27.60;49.60;;;;;;5063302;28;20325;-57
2021/06/19 08:11:57;;;;;;;2.80;2.55;;;27.60;49.50;;;;;;5091204;28;20028;-56
2021/06/19 08:14:23;;;;;;;3.15;2.85;;;27.60;49.40;;;;;;5093718;28;20333;-56
2021/06/19 08:16:52;;;;;;;3.20;2.85;;;27.60;49.70;;;;;;5096813;28;20051;-60
2021/06/19 08:19:19;;;;;;;3.25;2.78;;;27.60;49.30;;;;;;5087415;28;20099;-53
2021/06/19 08:21:45;;;;;;;3.33;2.83;;;27.60;49.20;;;;;;5096962;28;20043;-54
2021/06/19 08:24:11;;;;;;;3.53;3.22;;;27.60;49.10;;;;;;5094701;28;20042;-59
2021/06/19 08:26:37;;;;;;;3.50;3.00;;;27.60;49.10;;;;;;5092948;28;20036;-61
2021/06/19 08:29:07;;;;;;;3.63;2.92;;;27.70;49.10;;;;;;5090006;28;20028;-60
2021/06/19 08:31:38;;;;;;;3.30;3.00;;;27.70;49.00;;;;;;5097049;28;20115;-57
2021/06/19 08:34:04;;;;;;;4.15;3.72;;;27.70;49.60;;;;;;5095891;28;20075;-57
2021/06/19 08:36:31;;;;;;;4.00;3.28;;;27.70;49.00;;;;;;5093310;28;20039;-54
2021/06/19 08:38:57;;;;;;;4.28;3.33;;;27.70;49.00;;;;;;5096526;28;20051;-62
2021/06/19 08:41:23;;;;;;;5.75;3.38;;;27.80;49.00;;;;;;5091608;28;20078;-58
2021/06/19 08:43:49;;;;;;;3.75;3.10;;;27.80;49.00;;;;;;5086946;28;20077;-57
2021/06/19 08:46:19;;;;;;;4.10;3.58;;;27.80;49.00;;;;;;5085493;28;20027;-50
2021/06/19 08:48:51;;;;;;;3.90;3.42;;;27.80;49.00;;;;;;5097160;28;20032;-56
2021/06/19 08:51:19;;;;;;;4.40;3.90;;;27.90;48.90;;;;;;5094363;28;20031;-58
2021/06/19 08:53:46;;;;;;;3.83;3.35;;;27.80;48.80;;;;;;5095810;28;20069;-55
2021/06/19 08:56:16;;;;;;;4.03;3.42;;;27.80;48.80;;;;;;5084673;28;20071;-60
2021/06/19 08:58:42;;;;;;;5.05;3.53;;;27.90;48.80;;;;;;5085857;28;20032;-59
2021/06/19 09:01:08;;;;;;;3.72;3.28;;;27.90;48.70;;;;;;5094855;28;20032;-55
2021/06/19 09:03:34;;;;;;;3.50;3.20;;;27.90;48.70;;;;;;5086107;28;20028;-55
2021/06/19 09:06:21;;;;;;;4.22;3.38;;;27.90;48.70;;;;;;5090786;28;20024;-56
2021/06/19 09:09:09;;;;;;;3.97;3.50;;;27.90;48.60;;;;;;5090332;28;20052;-59
2021/06/19 09:11:54;;;;;;;3.55;3.08;;;27.90;48.70;;;;;;5097495;28;20028;-56
2021/06/19 09:14:23;;;;;;;5.05;3.40;;;27.90;48.70;;;;;;5080596;28;20033;-58
2021/06/19 09:16:59;;;;;;;4.43;3.20;;;27.90;48.70;;;;;;5077401;28;20070;-60
2021/06/19 09:19:30;;;;;;;5.35;3.22;;;27.90;48.60;;;;;;5090182;28;20394;-53
2021/06/19 09:22:15;;;;;;;3.40;3.10;;;27.90;48.60;;;;;;5085335;28;20394;-54
2021/06/19 09:24:42;;;;;;;3.47;3.10;;;28.00;48.60;;;;;;5093942;28;20043;-56
2021/06/19 09:27:33;;;;;;;4.43;3.28;;;28.00;48.70;;;;;;5086149;28;20032;-59
2021/06/19 09:30:06;;;;;;;2.90;2.38;;;28.00;48.50;;;;;;5085833;28;20027;-59
2021/06/19 09:32:32;;;;;;;3.00;2.53;;;28.00;48.40;;;;;;5079568;28;20028;-57
2021/06/19 09:35:20;;;;;;;3.20;2.60;;;28.00;48.40;;;;;;5083294;28;20063;-59
2021/06/19 09:37:51;;;;;;;2.58;2.38;;;28.00;48.20;;;;;;5079987;28;20039;-62
2021/06/19 09:40:30;;;;;;;3.35;2.63;;;28.00;48.30;;;;;;5094851;28;20046;-63
2021/06/19 09:43:21;;;;;;;3.00;2.55;;;28.00;48.20;;;;;;5096589;28;20035;-60
2021/06/19 09:46:01;;;;;;;2.67;2.40;;;28.00;48.20;;;;;;5094331;28;20049;-63
2021/06/19 09:48:47;;;;;;;3.30;2.47;;;28.00;48.30;;;;;;5094616;28;20032;-61
2021/06/19 09:51:15;;;;;;;4.18;2.38;;;27.90;48.40;;;;;;5091312;28;20074;-59
2021/06/19 09:53:44;;;;;;;2.45;2.25;;;28.00;48.60;;;;;;5095913;28;20035;-60
2021/06/19 09:56:12;;;;;;;4.55;2.53;;;28.00;48.60;;;;;;5083844;28;20112;-69
2021/06/19 09:58:41;;;;;;;2.60;2.08;;;28.10;48.60;;;;;;5078636;28;20025;-64
2021/06/19 10:01:07;;;;;;;2.72;2.28;;;28.10;48.60;;;;;;5089634;28;20339;-61
2021/06/19 10:03:53;;;;;;;3.45;2.67;;;28.10;48.50;;;;;;5087722;28;20396;-61
2021/06/19 10:06:21;;;;;;;3.47;2.15;;;28.20;48.30;;;;;;5081533;28;20439;-62
2021/06/19 10:08:47;;;;;;;4.00;2.15;;;28.10;48.20;;;;;;5084485;28;20040;-61
2021/06/19 10:11:15;;;;;;;2.50;2.30;;;28.20;48.30;;;;;;5089877;28;20038;-62
2021/06/19 10:13:48;;;;;;;2.60;2.10;;;28.20;48.20;;;;;;5088323;28;20035;-59
2021/06/19 10:16:16;;;;;;;2.30;2.10;;;28.20;48.20;;;;;;5085154;28;20041;-61
2021/06/19 10:18:43;;;;;;;3.20;2.63;;;28.20;48.10;;;;;;5087769;28;20040;-62
2021/06/19 10:21:10;;;;;;;2.88;2.17;;;28.20;48.10;;;;;;5087379;28;20036;-62
2021/06/19 10:23:36;;;;;;;3.42;2.50;;;28.20;48.00;;;;;;5084401;28;20487;-58
2021/06/19 10:26:02;;;;;;;2.70;2.22;;;28.20;48.00;;;;;;5089825;28;20024;-61
2021/06/19 10:28:30;;;;;;;2.67;2.13;;;28.20;48.00;;;;;;5085508;28;20465;-62
2021/06/19 10:30:57;;;;;;;2.92;2.22;;;28.30;48.00;;;;;;5086000;28;20029;-61
2021/06/19 10:33:32;;;;;;;2.58;2.10;;;28.30;48.00;;;;;;5087425;28;20031;-61
2021/06/19 10:36:03;;;;;;;2.88;2.53;;;28.30;47.90;;;;;;5086915;28;20505;-61
2021/06/19 10:38:30;;;;;;;2.72;2.40;;;28.30;47.90;;;;;;5088886;28;20081;-61
2021/06/19 10:41:01;;;;;;;3.97;2.30;;;28.30;47.80;;;;;;5082704;28;20031;-62
2021/06/19 10:43:29;;;;;;;2.83;2.30;;;28.30;47.80;;;;;;5085807;28;20451;-61
2021/06/19 10:46:15;;;;;;;2.63;1.90;;;28.30;47.80;;;;;;5085136;28;20032;-61
2021/06/19 10:48:41;;;;;;;2.10;1.88;;;28.30;47.70;;;;;;5085429;28;20151;-63
2021/06/19 10:51:19;;;;;;;2.35;2.15;;;28.30;47.70;;;;;;5083319;28;20501;-61
2021/06/19 10:54:06;;;;;;;2.72;2.10;;;28.30;47.50;;;;;;5084049;28;20328;-60
2021/06/19 10:56:51;;;;;;;2.38;1.90;;;28.30;47.50;;;;;;5085737;28;20432;-62
2021/06/19 10:59:22;;;;;;;3.58;2.05;;;28.30;47.40;;;;;;5077767;28;20048;-61
2021/06/19 11:01:50;;;;;;;2.28;1.80;;;28.30;47.40;;;;;;5083540;28;20434;-61
2021/06/19 11:04:38;;;;;;;3.00;2.00;;;28.30;47.40;;;;;;5081552;28;20039;-62
2021/06/19 11:07:19;;;;;;;2.03;1.75;;;28.30;47.20;;;;;;5088546;28;20059;-61
2021/06/19 11:09:49;;;;;;;2.17;1.80;;;28.40;47.30;;;;;;5083180;28;20085;-60
2021/06/19 11:12:24;;;;;;;2.05;1.80;;;28.40;47.20;;;;;;5082855;28;20042;-61
2021/06/19 11:14:58;;;;;;;2.10;1.70;;;28.50;47.20;;;;;;5081115;28;20127;-62
2021/06/19 11:17:25;;;;;;;1.92;1.63;;;28.50;47.10;;;;;;5088865;28;20040;-58
2021/06/19 11:19:58;;;;;;;2.10;1.90;;;28.50;47.10;;;;;;5075848;28;20418;-60
2021/06/19 11:22:34;;;;;;;2.53;1.88;;;28.60;47.20;;;;;;5085726;28;20036;-59
2021/06/19 11:26:07;;;;;;;2.47;1.90;;;28.60;47.20;;;;;;5082989;28;20363;-61
2021/06/19 11:28:26;;;;;;;2.60;1.90;;;28.60;47.10;;;;;;5085115;28;20040;-61
2021/06/19 11:30:54;;;;;;;2.45;2.20;;;28.60;47.20;;;;;;5078672;28;20459;-60
2021/06/19 11:33:25;;;;;;;2.50;2.30;;;28.60;47.20;;;;;;5079028;28;20162;-61
2021/06/19 11:36:12;;;;;;;3.88;2.92;;;28.60;47.20;;;;;;5078041;28;20450;-61
2021/06/19 11:38:46;;;;;;;3.78;3.20;;;28.60;46.50;;;;;;5069823;28;20122;-62
2021/06/19 11:41:17;;;;;;;4.05;3.42;;;28.50;46.40;;;;;;5089385;28;20020;-61
2021/06/19 11:43:44;;;;;;;4.80;4.28;;;28.30;46.60;;;;;;5081344;28;20044;-62
2021/06/19 11:46:11;;;;;;;5.65;4.18;;;28.10;46.70;;;;;;5088064;28;20078;-59
2021/06/19 11:48:55;;;;;;;5.72;5.07;;;27.90;46.80;;;;;;5085993;28;20326;-60
2021/06/19 11:51:24;;;;;;;;;;;27.70;46.90;;;;;;5079752;28;20048;-62
2021/06/19 11:53:52;;;;;;;6.88;5.55;;;27.50;47.10;;;;;;5081606;28;19908;-65
2021/06/19 11:56:24;;;;;;;7.25;6.10;;;27.40;47.50;;;;;;5087928;28;20048;-60
2021/06/19 11:58:55;;;;;;;6.65;5.65;;;27.20;47.60;;;;;;5085674;28;20044;-61
2021/06/19 12:01:29;;;;;;;6.90;6.18;;;27.20;47.70;;;;;;5083766;28;20032;-61
2021/06/19 12:04:03;;;;;;;8.50;7.32;;;27.00;47.60;;;;;;5086507;28;20165;-64
2021/06/19 12:06:35;;;;;;;9.35;7.80;;;26.90;47.50;;;;;;5078005;28;20071;-62
2021/06/19 12:09:29;;;;;;;8.90;8.00;;;26.80;47.50;;;;;;5082568;28;20032;-61
2021/06/19 12:12:06;;;;;;;9.70;8.32;;;26.70;47.40;;;;;;5077352;28;20040;-61
2021/06/19 12:14:37;;;;;;;10.38;9.30;;;26.60;47.40;;;;;;5083914;28;20486;-61
2021/06/19 12:17:07;;;;;;;10.82;9.52;;;26.50;47.20;;;;;;5086487;28;20041;-61
2021/06/19 12:19:38;;;;;;;11.13;10.02;;;26.40;47.20;;;;;;5082538;28;20043;-61
2021/06/19 12:22:06;;;;;;;12.93;11.13;;;26.30;47.20;;;;;;5084873;28;20040;-62
2021/06/19 12:24:40;;;;;;;12.10;10.85;;;26.30;47.30;;;;;;5083299;28;20028;-62
2021/06/19 12:27:18;;;;;;;11.32;10.13;;;26.10;47.30;;;;;;5080242;28;20333;-61
2021/06/19 12:29:55;;;;;;;11.40;10.20;;;26.10;47.50;;;;;;5082912;28;20040;-62
2021/06/19 12:32:24;;;;;;;11.70;10.45;;;26.00;47.80;;;;;;5085111;28;20042;-62
2021/06/19 12:34:52;;;;;;;11.27;10.15;;;25.90;47.90;;;;;;5076726;28;20043;-64
2021/06/19 12:37:23;;;;;;;12.57;11.27;;;25.90;48.10;;;;;;5088884;28;20043;-62
2021/06/19 12:39:49;;;;;;;13.40;12.00;;;25.80;48.00;;;;;;5091950;28;20028;-64
2021/06/19 12:42:36;;;;;;;14.18;12.68;;;25.80;48.00;;;;;;5084429;28;20019;-64
2021/06/19 12:45:08;;;;;;;15.18;13.57;;;25.70;47.90;;;;;;5091057;28;20035;-61
2021/06/19 12:47:40;;;;;;;13.77;12.40;;;25.70;48.00;;;;;;5090986;28;20081;-64
2021/06/19 12:50:07;;;;;;;14.68;13.18;;;25.60;47.90;;;;;;5094146;28;20046;-61
2021/06/19 12:52:33;;;;;;;15.60;13.98;;;25.60;48.00;;;;;;5086713;28;20076;-62
2021/06/19 12:55:13;;;;;;;14.07;12.63;;;25.60;48.80;;;;;;5086378;28;20453;-64